createdAt,value
2022-08-17T00:01:51.379Z,34.10
2022-08-17T00:04:19.798Z,37.40
2022-08-17T00:06:49.059Z,36.60
2022-08-17T00:09:18.388Z,38.92
2022-08-17T00:12:42.721Z,36.15
2022-08-17T00:17:22.888Z,38.35
2022-08-17T00:19:49.394Z,37.22
2022-08-17T00:22:34.130Z,38.28
2022-08-17T00:28:49.787Z,40.70
2022-08-17T00:31:19.001Z,38.60
2022-08-17T00:33:45.636Z,38.95
2022-08-17T00:36:14.189Z,39.38
2022-08-17T00:38:41.645Z,41.08
2022-08-17T00:41:13.839Z,38.83
2022-08-17T00:43:49.324Z,39.17
2022-08-17T00:46:21.775Z,41.92
2022-08-17T00:48:49.451Z,42.22
2022-08-17T00:51:21.833Z,43.35
2022-08-17T00:54:03.324Z,46.05
2022-08-17T00:56:33.460Z,45.25
2022-08-17T00:59:00.915Z,47.13
2022-08-17T01:01:27.520Z,45.17
2022-08-17T01:03:55.559Z,47.50
2022-08-17T01:06:28.316Z,51.03
2022-08-17T01:08:57.575Z,49.45
2022-08-17T01:11:24.522Z,49.33
2022-08-17T01:13:51.172Z,47.45
2022-08-17T01:16:25.983Z,44.97
2022-08-17T01:18:55.273Z,41.97
2022-08-17T01:21:40.701Z,39.60
2022-08-17T01:26:35.576Z,34.65
2022-08-17T01:29:08.486Z,33.85
2022-08-17T01:31:45.604Z,39.08
2022-08-17T01:34:14.511Z,37.97
2022-08-17T01:36:44.172Z,39.17
2022-08-17T01:39:21.817Z,35.60
2022-08-17T01:41:50.180Z,39.15
2022-08-17T01:44:17.047Z,37.28
2022-08-17T01:46:43.624Z,40.90
2022-08-17T01:49:11.736Z,41.95
2022-08-17T01:51:38.768Z,43.78
2022-08-17T01:54:08.923Z,38.53
2022-08-17T01:56:38.135Z,35.85
2022-08-17T01:59:04.934Z,32.50
2022-08-17T02:01:33.736Z,36.28
2022-08-17T02:04:01.915Z,34.88
2022-08-17T02:06:45.237Z,35.17
2022-08-17T02:09:25.537Z,40.05
2022-08-17T02:11:52.799Z,42.42
2022-08-17T02:14:21.096Z,42.88
2022-08-17T02:16:47.599Z,44.85
2022-08-17T02:19:15.997Z,48.50
2022-08-17T02:21:44.850Z,48.15
2022-08-17T02:25:00.749Z,50.22
2022-08-17T02:27:10.059Z,49.10
2022-08-17T02:29:37.191Z,52.70
2022-08-17T02:32:04.959Z,46.80
2022-08-17T02:34:32.334Z,48.60
2022-08-17T02:36:58.862Z,50.50
2022-08-17T02:39:25.402Z,52.55
2022-08-17T02:42:00.915Z,50.40
2022-08-17T02:44:35.397Z,53.00
2022-08-17T02:47:09.846Z,53.45
2022-08-17T02:49:37.194Z,48.33
2022-08-17T02:52:05.778Z,48.78
2022-08-17T02:54:41.680Z,54.08
2022-08-17T02:57:09.536Z,50.13
2022-08-17T02:59:36.061Z,47.20
2022-08-17T03:02:10.700Z,46.35
2022-08-17T03:04:37.752Z,48.28
2022-08-17T03:07:05.457Z,47.03
2022-08-17T03:09:32.431Z,47.55
2022-08-17T03:12:08.259Z,47.33
2022-08-17T03:14:41.269Z,42.22
2022-08-17T03:17:10.059Z,41.22
2022-08-17T03:19:37.487Z,41.78
2022-08-17T03:22:36.600Z,38.83
2022-08-17T03:24:56.836Z,36.20
2022-08-17T03:27:23.442Z,34.25
2022-08-17T03:29:49.942Z,34.13
2022-08-17T03:32:16.986Z,33.60
2022-08-17T03:34:43.705Z,29.58
2022-08-17T03:37:10.327Z,27.52
2022-08-17T03:39:36.928Z,27.02
2022-08-17T03:42:31.815Z,23.52
2022-08-17T03:47:44.713Z,24.88
2022-08-17T03:53:15.577Z,17.70
2022-08-17T03:56:00.899Z,14.40
2022-08-17T03:58:27.435Z,13.07
2022-08-17T04:00:55.205Z,13.50
2022-08-17T04:03:21.772Z,13.35
2022-08-17T04:05:48.285Z,12.82
2022-08-17T04:08:15.042Z,12.75
2022-08-17T04:10:44.879Z,13.23
2022-08-17T04:13:12.367Z,13.02
2022-08-17T04:15:38.907Z,12.73
2022-08-17T04:18:07.335Z,13.10
2022-08-17T04:20:34.374Z,13.63
2022-08-17T04:23:06.014Z,13.80
2022-08-17T04:25:35.224Z,12.73
2022-08-17T04:28:02.761Z,13.60
2022-08-17T04:30:45.261Z,13.75
2022-08-17T04:33:17.027Z,14.25
2022-08-17T04:35:49.275Z,14.82
2022-08-17T04:38:19.604Z,14.05
2022-08-17T04:41:04.972Z,14.90
2022-08-17T04:43:33.792Z,14.27
2022-08-17T04:46:06.786Z,15.52
2022-08-17T04:48:43.887Z,16.10
2022-08-17T04:51:17.820Z,16.30
2022-08-17T04:53:53.838Z,16.02
2022-08-17T04:56:22.556Z,16.73
2022-08-17T04:58:50.584Z,14.88
2022-08-17T05:01:24.050Z,18.45
2022-08-17T05:03:53.094Z,17.95
2022-08-17T05:06:19.849Z,19.63
2022-08-17T05:08:46.360Z,21.40
2022-08-17T05:11:12.873Z,20.70
2022-08-17T05:13:39.374Z,24.27
2022-08-17T05:16:06.181Z,23.33
2022-08-17T05:18:32.999Z,26.33
2022-08-17T05:20:59.651Z,25.50
2022-08-17T05:23:42.059Z,27.48
2022-08-17T05:26:21.387Z,25.75
2022-08-17T05:28:54.256Z,25.10
2022-08-17T05:31:20.860Z,24.27
2022-08-17T05:33:47.456Z,25.25
2022-08-17T05:36:42.705Z,24.80
2022-08-17T05:39:02.295Z,23.90
2022-08-17T05:41:28.910Z,27.02
2022-08-17T05:43:56.497Z,24.80
2022-08-17T05:46:26.927Z,26.83
2022-08-17T05:48:57.278Z,25.17
2022-08-17T05:51:42.664Z,23.85
2022-08-17T05:54:33.613Z,25.42
2022-08-17T05:57:12.498Z,24.25
2022-08-17T06:00:04.494Z,25.67
2022-08-17T06:02:54.757Z,24.88
2022-08-17T06:05:59.085Z,25.58
2022-08-17T06:08:51.533Z,25.77
2022-08-17T06:11:37.378Z,24.17
2022-08-17T06:16:53.906Z,25.27
2022-08-17T06:19:31.777Z,22.83
2022-08-17T06:21:58.858Z,23.63
2022-08-17T06:24:25.419Z,23.23
2022-08-17T06:26:52.501Z,23.10
2022-08-17T06:29:37.215Z,23.27
2022-08-17T06:32:05.971Z,23.75
2022-08-17T06:34:33.888Z,24.42
2022-08-17T06:37:20.043Z,22.45
2022-08-17T06:42:54.618Z,22.70
2022-08-17T06:45:22.004Z,22.63
2022-08-17T06:47:55.417Z,24.92
2022-08-17T06:50:24.735Z,23.83
2022-08-17T06:52:59.431Z,23.13
2022-08-17T06:55:37.902Z,24.58
2022-08-17T06:58:16.029Z,23.13
2022-08-17T07:00:45.869Z,23.20
2022-08-17T07:03:32.390Z,23.30
2022-08-17T07:06:06.872Z,23.17
2022-08-17T07:08:52.257Z,25.35
2022-08-17T07:11:49.362Z,24.95
2022-08-17T07:14:25.759Z,26.17
2022-08-17T07:16:55.517Z,27.77
2022-08-17T07:19:24.852Z,27.65
2022-08-17T07:22:05.979Z,26.55
2022-08-17T07:24:45.245Z,28.13
2022-08-17T07:27:16.489Z,27.65
2022-08-17T07:29:47.461Z,28.58
2022-08-17T07:32:18.552Z,28.05
2022-08-17T07:35:23.062Z,25.77
2022-08-17T07:38:30.643Z,25.98
2022-08-17T07:40:57.914Z,25.85
2022-08-17T07:43:31.130Z,27.65
2022-08-17T07:46:35.668Z,25.15
2022-08-17T07:49:07.594Z,26.45
2022-08-17T07:51:40.959Z,25.05
2022-08-17T07:54:17.252Z,25.98
2022-08-17T07:57:15.802Z,25.48
2022-08-17T08:00:03.173Z,24.52
2022-08-17T08:02:38.467Z,26.13
2022-08-17T08:05:30.857Z,23.63
2022-08-17T08:08:21.253Z,25.02
2022-08-17T08:10:58.167Z,24.63
2022-08-17T08:13:27.933Z,25.48
2022-08-17T08:16:19.780Z,25.70
2022-08-17T08:18:55.015Z,22.45
2022-08-17T08:21:42.051Z,24.17
2022-08-17T08:24:32.992Z,24.77
2022-08-17T08:27:33.567Z,24.40
2022-08-17T08:30:07.589Z,22.88
2022-08-17T08:32:46.517Z,24.35
2022-08-17T08:35:29.582Z,27.70
2022-08-17T08:38:20.057Z,24.83
2022-08-17T08:41:10.728Z,39.60
2022-08-17T08:44:11.699Z,30.05
2022-08-17T08:46:53.471Z,30.38
2022-08-17T08:49:39.298Z,26.80
2022-08-17T08:52:45.436Z,30.77
2022-08-17T08:55:41.014Z,30.63
2022-08-17T08:58:32.288Z,31.58
2022-08-17T09:01:08.832Z,31.47
2022-08-17T09:04:23.359Z,33.80
2022-08-17T09:07:01.051Z,29.90
2022-08-17T09:09:42.975Z,29.45
2022-08-17T09:12:42.063Z,29.33
2022-08-17T09:15:17.674Z,31.20
2022-08-17T09:19:01.474Z,31.00
2022-08-17T09:23:59.890Z,31.05
2022-08-17T09:27:08.068Z,29.98
2022-08-17T09:29:40.231Z,25.25
2022-08-17T09:32:55.328Z,26.83
2022-08-17T09:35:25.151Z,25.20
2022-08-17T09:38:09.187Z,28.42
2022-08-17T09:40:41.266Z,22.98
2022-08-17T09:43:44.310Z,20.60
2022-08-17T09:46:24.925Z,18.00
2022-08-17T09:49:01.968Z,17.05
2022-08-17T09:51:31.726Z,13.40
2022-08-17T09:54:21.101Z,12.20
2022-08-17T09:57:59.604Z,11.13
2022-08-17T10:00:31.797Z,10.48
2022-08-17T10:03:04.463Z,10.50
2022-08-17T10:05:48.073Z,8.98
2022-08-17T10:08:39.452Z,8.93
2022-08-17T10:11:15.015Z,9.40
2022-08-17T10:13:52.738Z,10.57
2022-08-17T10:16:30.167Z,11.50
2022-08-17T10:19:09.918Z,12.25
2022-08-17T10:22:00.598Z,12.00
2022-08-17T10:25:02.131Z,12.52
2022-08-17T10:27:49.085Z,10.63
2022-08-17T10:30:24.411Z,9.70
2022-08-17T10:32:59.952Z,10.15
2022-08-17T10:35:52.834Z,10.07
2022-08-17T10:38:26.690Z,9.45
2022-08-17T10:40:57.528Z,9.43
2022-08-17T10:43:34.573Z,8.43
2022-08-17T10:46:10.711Z,8.80
2022-08-17T10:49:16.847Z,9.93
2022-08-17T10:51:45.990Z,10.43
2022-08-17T10:54:24.803Z,12.10
2022-08-17T10:56:53.697Z,13.25
2022-08-17T10:59:35.703Z,15.27
2022-08-17T11:02:14.467Z,17.02
2022-08-17T11:05:08.906Z,17.25
2022-08-17T11:07:35.350Z,18.10
2022-08-17T11:10:25.794Z,18.10
2022-08-17T11:16:09.110Z,17.45
2022-08-17T11:19:08.573Z,16.85
2022-08-17T11:21:59.600Z,16.88
2022-08-17T11:24:39.933Z,16.73
2022-08-17T11:27:28.024Z,16.25
2022-08-17T11:30:02.546Z,16.33
2022-08-17T11:32:47.755Z,16.08
2022-08-17T11:35:21.127Z,16.50
2022-08-17T11:38:19.033Z,16.38
2022-08-17T11:40:48.614Z,17.50
2022-08-17T11:43:46.000Z,16.15
2022-08-17T11:46:54.180Z,18.90
2022-08-17T11:50:02.325Z,18.27
2022-08-17T11:52:46.977Z,23.77
2022-08-17T11:55:36.298Z,20.48
2022-08-17T11:58:31.277Z,21.58
2022-08-17T12:01:28.964Z,20.67
2022-08-17T12:04:21.822Z,22.27
2022-08-17T12:07:07.107Z,24.40
2022-08-17T12:09:34.616Z,24.25
2022-08-17T12:12:13.389Z,24.83
2022-08-17T12:15:08.931Z,25.63
2022-08-17T12:20:42.844Z,24.30
2022-08-17T12:23:10.074Z,27.52
2022-08-17T12:25:42.578Z,27.20
2022-08-17T12:28:24.821Z,28.80
2022-08-17T12:30:52.315Z,26.92
2022-08-17T12:33:28.772Z,27.10
2022-08-17T12:36:07.490Z,26.00
2022-08-17T12:38:37.528Z,25.83
2022-08-17T12:41:24.307Z,27.35
2022-08-17T12:44:18.654Z,26.67
2022-08-17T12:47:10.737Z,26.85
2022-08-17T12:49:39.442Z,27.75
2022-08-17T12:52:08.993Z,27.77
2022-08-17T12:54:38.514Z,26.73
2022-08-17T12:57:09.994Z,30.25
2022-08-17T12:59:41.213Z,28.95
2022-08-17T13:02:15.993Z,28.88
2022-08-17T13:04:42.918Z,27.42
2022-08-17T13:07:09.542Z,26.52
2022-08-17T13:09:40.534Z,27.20
2022-08-17T13:12:08.252Z,26.40
2022-08-17T13:14:35.432Z,27.65
2022-08-17T13:17:07.340Z,27.45
2022-08-17T13:19:40.140Z,26.10
2022-08-17T13:22:11.455Z,25.02
2022-08-17T13:24:38.715Z,21.60
2022-08-17T13:27:08.746Z,23.73
2022-08-17T13:29:40.123Z,21.38
2022-08-17T13:32:13.488Z,23.73
2022-08-17T13:35:14.886Z,22.75
2022-08-17T13:37:40.575Z,23.17
2022-08-17T13:40:08.145Z,21.55
2022-08-17T13:42:51.500Z,21.83
2022-08-17T13:48:17.137Z,20.73
2022-08-17T13:50:49.308Z,22.02
2022-08-17T13:53:27.847Z,22.15
2022-08-17T13:56:34.927Z,20.10
2022-08-17T13:59:53.900Z,17.90
2022-08-17T14:02:19.699Z,17.60
2022-08-17T14:04:47.412Z,18.10
2022-08-17T14:07:15.358Z,18.95
2022-08-17T14:09:54.299Z,19.95
2022-08-17T14:12:25.189Z,18.95
2022-08-17T14:14:52.651Z,18.13
2022-08-17T14:17:19.323Z,18.30
2022-08-17T14:19:45.869Z,16.45
2022-08-17T14:22:27.857Z,17.85
2022-08-17T14:24:57.334Z,18.25
2022-08-17T14:27:26.310Z,19.77
2022-08-17T14:29:53.263Z,19.23
2022-08-17T14:32:24.786Z,16.88
2022-08-17T14:37:34.429Z,19.70
2022-08-17T14:40:03.847Z,20.05
2022-08-17T14:42:33.504Z,18.98
2022-08-17T14:45:00.365Z,19.05
2022-08-17T14:47:27.101Z,20.63
2022-08-17T14:49:53.642Z,19.58
2022-08-17T14:52:21.676Z,22.02
2022-08-17T14:54:52.550Z,23.15
2022-08-17T14:57:33.071Z,22.30
2022-08-17T15:00:01.903Z,25.65
2022-08-17T15:02:30.667Z,27.55
2022-08-17T15:05:03.850Z,22.63
2022-08-17T15:07:31.416Z,21.58
2022-08-17T15:10:02.302Z,21.88
2022-08-17T15:12:33.278Z,21.33
2022-08-17T15:17:44.719Z,21.58
2022-08-17T15:20:24.997Z,21.55
2022-08-17T15:22:55.546Z,19.25
2022-08-17T15:25:23.286Z,20.58
2022-08-17T15:27:50.272Z,22.90
2022-08-17T15:30:17.510Z,23.23
2022-08-17T15:32:50.715Z,23.55
2022-08-17T15:35:27.466Z,22.30
2022-08-17T15:38:12.308Z,24.67
2022-08-17T15:40:46.188Z,21.17
2022-08-17T15:43:26.512Z,21.65
2022-08-17T15:46:16.330Z,22.10
2022-08-17T15:48:47.930Z,20.05
2022-08-17T15:51:25.968Z,21.60
2022-08-17T15:54:00.379Z,21.30
2022-08-17T15:56:31.723Z,22.27
2022-08-17T15:58:58.826Z,20.45
2022-08-17T16:02:59.354Z,21.95
2022-08-17T16:04:30.152Z,20.40
2022-08-17T16:06:58.704Z,17.63
2022-08-17T16:09:25.215Z,18.95
2022-08-17T16:11:52.151Z,16.95
2022-08-17T16:14:22.770Z,16.05
2022-08-17T16:16:50.711Z,15.90
2022-08-17T16:19:17.305Z,15.82
2022-08-17T16:21:43.823Z,15.77
2022-08-17T16:24:13.196Z,15.15
2022-08-17T16:26:40.746Z,15.63
2022-08-17T16:29:07.977Z,15.90
2022-08-17T16:31:35.968Z,15.30
2022-08-17T16:34:17.766Z,14.60
2022-08-17T16:36:51.752Z,16.70
2022-08-17T16:39:26.874Z,15.98
2022-08-17T16:41:55.827Z,14.93
2022-08-17T16:44:30.553Z,16.33
2022-08-17T16:46:57.619Z,15.27
2022-08-17T16:49:36.635Z,15.35
2022-08-17T16:52:32.640Z,14.57
2022-08-17T16:55:02.157Z,14.93
2022-08-17T16:57:29.779Z,15.30
2022-08-17T16:59:56.993Z,15.75
2022-08-17T17:02:36.392Z,15.98
2022-08-17T17:05:30.782Z,13.07
2022-08-17T17:08:03.396Z,14.98
2022-08-17T17:10:40.357Z,13.88
2022-08-17T17:13:14.265Z,14.48
2022-08-17T17:15:54.887Z,13.25
2022-08-17T17:18:29.976Z,14.43
2022-08-17T17:23:38.195Z,13.85
2022-08-17T17:26:15.538Z,13.93
2022-08-17T17:29:00.187Z,13.75
2022-08-17T17:31:39.939Z,14.27
2022-08-17T17:34:08.202Z,13.88
2022-08-17T17:36:39.615Z,13.10
2022-08-17T17:39:16.961Z,13.80
2022-08-17T17:41:44.788Z,15.00
2022-08-17T17:44:17.864Z,16.52
2022-08-17T17:46:51.006Z,15.68
2022-08-17T17:49:18.541Z,16.35
2022-08-17T17:52:10.854Z,16.48
2022-08-17T17:55:06.720Z,16.50
2022-08-17T17:58:01.315Z,16.88
2022-08-17T18:00:46.437Z,15.75
2022-08-17T18:03:24.993Z,16.27
2022-08-17T18:06:13.508Z,15.32
2022-08-17T18:08:59.657Z,16.60
2022-08-17T18:11:34.869Z,15.75
2022-08-17T18:14:22.513Z,15.07
2022-08-17T18:16:56.034Z,14.27
2022-08-17T18:19:25.425Z,14.57
2022-08-17T18:22:01.589Z,14.82
2022-08-17T18:24:31.160Z,14.35
2022-08-17T18:26:59.285Z,15.43
2022-08-17T18:29:30.619Z,15.55
2022-08-17T18:32:23.386Z,15.55
2022-08-17T18:35:00.152Z,17.05
2022-08-17T18:37:32.132Z,16.50
2022-08-17T18:39:58.805Z,18.23
2022-08-17T18:42:43.075Z,18.52
2022-08-17T18:45:09.816Z,19.48
2022-08-17T18:47:36.639Z,17.27
2022-08-17T18:50:24.380Z,17.73
2022-08-17T18:52:51.514Z,16.45
2022-08-17T18:55:24.767Z,17.23
2022-08-17T18:57:56.670Z,15.52
2022-08-17T19:00:40.488Z,15.57
2022-08-17T19:03:23.700Z,14.02
2022-08-17T19:06:17.122Z,12.68
2022-08-17T19:08:44.448Z,11.98
2022-08-17T19:11:22.064Z,10.88
2022-08-17T19:13:54.958Z,10.65
2022-08-17T19:16:29.901Z,9.32
2022-08-17T19:18:58.598Z,11.15
2022-08-17T19:21:45.358Z,10.25
2022-08-17T19:24:19.970Z,8.98
2022-08-17T19:26:57.591Z,10.38
2022-08-17T19:29:44.812Z,9.30
2022-08-17T19:32:12.756Z,9.30
2022-08-17T19:34:42.994Z,10.10
2022-08-17T19:37:27.756Z,11.00
2022-08-17T19:40:03.545Z,9.07
2022-08-17T19:43:03.850Z,9.75
2022-08-17T19:45:56.100Z,9.65
2022-08-17T19:48:45.564Z,8.32
2022-08-17T19:51:23.145Z,9.45
2022-08-17T19:54:05.967Z,9.27
2022-08-17T19:57:10.874Z,10.20
2022-08-17T19:59:48.754Z,9.18
2022-08-17T20:02:40.141Z,10.52
2022-08-17T20:05:13.948Z,10.20
2022-08-17T20:08:01.701Z,10.15
2022-08-17T20:10:34.275Z,11.05
2022-08-17T20:13:04.261Z,10.85
2022-08-17T20:15:42.294Z,9.55
2022-08-17T20:21:20.348Z,11.35
2022-08-17T20:24:05.708Z,9.80
2022-08-17T20:27:05.097Z,10.70
2022-08-17T20:29:40.073Z,10.88
2022-08-17T20:32:29.096Z,10.60
2022-08-17T20:35:23.766Z,10.60
2022-08-17T20:38:12.774Z,9.82
2022-08-17T20:41:03.055Z,10.43
2022-08-17T20:43:46.190Z,10.70
2022-08-17T20:46:15.314Z,10.55
2022-08-17T20:48:45.011Z,11.75
2022-08-17T20:51:26.029Z,10.80
2022-08-17T20:53:55.682Z,11.45
2022-08-17T20:56:44.160Z,11.98
2022-08-17T20:59:26.109Z,12.15
2022-08-17T21:02:23.073Z,10.93
2022-08-17T21:04:54.465Z,10.10
2022-08-17T21:07:29.089Z,10.10
2022-08-17T21:10:15.994Z,11.38
2022-08-17T21:13:00.872Z,11.55
2022-08-17T21:18:52.703Z,12.32
2022-08-17T21:21:41.556Z,12.40
2022-08-17T21:24:38.501Z,12.85
2022-08-17T21:27:08.684Z,13.35
2022-08-17T21:29:52.766Z,13.77
2022-08-17T21:32:31.502Z,12.88
2022-08-17T21:35:11.181Z,13.57
2022-08-17T21:37:41.194Z,12.95
2022-08-17T21:40:10.809Z,12.77
2022-08-17T21:43:09.740Z,14.75
2022-08-17T21:45:42.660Z,13.07
2022-08-17T21:48:20.107Z,13.85
2022-08-17T21:51:12.815Z,13.60
2022-08-17T21:53:42.472Z,12.98
2022-08-17T21:56:11.291Z,13.63
2022-08-17T21:58:40.410Z,13.70
2022-08-17T22:01:09.972Z,13.30
2022-08-17T22:03:38.534Z,13.70
2022-08-17T22:06:19.965Z,13.77
2022-08-17T22:09:20.490Z,12.88
2022-08-17T22:12:22.727Z,13.15
2022-08-17T22:15:07.639Z,12.15
2022-08-17T22:17:41.164Z,12.00
2022-08-17T22:20:16.755Z,13.13
2022-08-17T22:23:04.968Z,13.07
2022-08-17T22:25:34.209Z,11.88
2022-08-17T22:28:05.890Z,11.18
2022-08-17T22:30:40.622Z,10.57
2022-08-17T22:33:35.135Z,11.15
2022-08-17T22:36:10.528Z,9.85
2022-08-17T22:38:38.100Z,10.32
2022-08-17T22:41:26.965Z,10.52
2022-08-17T22:43:53.803Z,10.43
2022-08-17T22:46:21.371Z,10.77
2022-08-17T22:48:55.895Z,10.88
2022-08-17T22:51:26.269Z,10.63
2022-08-17T22:54:18.421Z,9.75
2022-08-17T22:57:31.447Z,10.68
2022-08-17T22:59:59.432Z,10.48
2022-08-17T23:02:34.668Z,10.85
2022-08-17T23:05:10.723Z,10.45
2022-08-17T23:07:37.283Z,10.60
2022-08-17T23:10:06.494Z,11.02
2022-08-17T23:12:38.880Z,12.15
2022-08-17T23:17:57.857Z,12.18
2022-08-17T23:20:24.658Z,11.50
2022-08-17T23:22:52.988Z,11.77
2022-08-17T23:25:31.576Z,10.00
2022-08-17T23:28:01.581Z,11.13
2022-08-17T23:30:30.562Z,11.13
2022-08-17T23:33:03.258Z,10.93
2022-08-17T23:35:39.033Z,11.43
2022-08-17T23:38:08.790Z,11.27
2022-08-17T23:40:35.579Z,10.70
2022-08-17T23:43:04.412Z,10.65
2022-08-17T23:45:32.370Z,10.65
2022-08-17T23:47:58.884Z,10.95
2022-08-17T23:50:25.466Z,9.60
2022-08-17T23:52:57.467Z,10.18
2022-08-17T23:55:24.033Z,9.65
2022-08-17T23:57:50.729Z,10.07
